createdAt,value
2019-03-27T00:01:44.348Z,73.14
2019-03-27T00:04:15.878Z,73.45
2019-03-27T00:06:47.488Z,73.35
2019-03-27T00:09:19.170Z,72.96
2019-03-27T00:11:50.579Z,73.20
2019-03-27T00:14:22.021Z,73.36
2019-03-27T00:16:53.616Z,73.12
2019-03-27T00:19:25.047Z,73.25
2019-03-27T00:21:56.644Z,73.56
2019-03-27T00:24:28.200Z,73.61
2019-03-27T00:26:59.833Z,73.20
2019-03-27T00:29:31.423Z,73.36
2019-03-27T00:32:02.950Z,73.34
2019-03-27T00:34:34.416Z,73.21
2019-03-27T00:37:06.038Z,73.46
2019-03-27T00:39:38.123Z,73.14
2019-03-27T00:42:09.674Z,73.19
2019-03-27T00:44:41.287Z,73.20
2019-03-27T00:47:12.812Z,73.30
2019-03-27T00:49:44.594Z,73.22
2019-03-27T00:52:16.084Z,73.40
2019-03-27T00:54:47.572Z,73.61
2019-03-27T00:57:19.212Z,73.64
2019-03-27T00:59:51.392Z,73.57
2019-03-27T01:02:22.824Z,73.35
2019-03-27T01:04:54.338Z,73.37
2019-03-27T01:07:26.213Z,73.66
2019-03-27T01:09:57.712Z,73.51
2019-03-27T01:12:29.185Z,73.51
2019-03-27T01:15:00.661Z,73.75
2019-03-27T01:17:32.241Z,73.59
2019-03-27T01:20:03.894Z,74.32
2019-03-27T01:22:35.437Z,74.60
2019-03-27T01:25:08.205Z,74.72
2019-03-27T01:27:39.725Z,74.63
2019-03-27T01:30:12.546Z,74.62
2019-03-27T01:32:44.104Z,74.94
2019-03-27T01:35:16.647Z,74.70
2019-03-27T01:37:52.495Z,74.56
2019-03-27T01:40:24.911Z,74.43
2019-03-27T01:42:56.423Z,74.59
2019-03-27T01:45:28.031Z,74.59
2019-03-27T01:47:59.883Z,74.65
2019-03-27T01:50:33.068Z,74.43
2019-03-27T01:53:04.604Z,74.29
2019-03-27T01:55:42.353Z,74.08
2019-03-27T01:58:14.029Z,73.85
2019-03-27T02:00:46.525Z,74.10
2019-03-27T02:03:18.381Z,74.27
2019-03-27T02:05:50.003Z,74.53
2019-03-27T02:08:21.677Z,74.43
2019-03-27T02:10:53.670Z,73.74
2019-03-27T02:13:28.158Z,74.02
2019-03-27T02:16:06.649Z,74.20
2019-03-27T02:18:34.360Z,74.27
2019-03-27T02:21:06.379Z,74.29
2019-03-27T02:23:38.919Z,74.22
2019-03-27T02:26:10.434Z,74.02
2019-03-27T02:28:41.951Z,73.69
2019-03-27T02:31:13.484Z,73.75
2019-03-27T02:33:45.033Z,73.34
2019-03-27T02:36:16.568Z,73.69
2019-03-27T02:38:49.002Z,73.97
2019-03-27T02:41:20.526Z,74.30
2019-03-27T02:43:52.436Z,74.23
2019-03-27T02:46:25.929Z,74.08
2019-03-27T02:48:57.435Z,73.96
2019-03-27T02:51:29.648Z,74.11
2019-03-27T02:54:21.250Z,74.26
2019-03-27T02:56:59.073Z,74.27
2019-03-27T02:59:31.494Z,74.17
2019-03-27T03:02:04.143Z,74.01
2019-03-27T03:04:35.817Z,74.17
2019-03-27T03:07:07.421Z,74.23
2019-03-27T03:09:38.962Z,74.49
2019-03-27T03:12:10.584Z,74.04
2019-03-27T03:14:42.618Z,73.91
2019-03-27T03:17:14.188Z,73.98
2019-03-27T03:19:45.745Z,74.42
2019-03-27T03:22:17.275Z,74.29
2019-03-27T03:24:48.925Z,74.22
2019-03-27T03:27:20.513Z,74.55
2019-03-27T03:29:52.016Z,74.72
2019-03-27T03:32:25.443Z,74.75
2019-03-27T03:34:56.989Z,74.43
2019-03-27T03:37:29.714Z,74.27
2019-03-27T03:40:01.674Z,74.84
2019-03-27T03:42:33.198Z,75.94
2019-03-27T03:45:05.213Z,76.51
2019-03-27T03:47:37.618Z,76.36
2019-03-27T03:50:16.831Z,76.50
2019-03-27T03:52:48.751Z,76.80
2019-03-27T03:55:20.382Z,76.39
2019-03-27T03:57:53.141Z,77.40
2019-03-27T04:00:27.761Z,77.29
2019-03-27T04:03:01.452Z,77.10
2019-03-27T04:05:33.109Z,76.73
2019-03-27T04:08:04.635Z,76.09
2019-03-27T04:10:36.620Z,75.68
2019-03-27T04:13:09.079Z,75.75
2019-03-27T04:15:41.658Z,75.97
2019-03-27T04:18:13.320Z,76.10
2019-03-27T04:20:51.377Z,75.63
2019-03-27T04:23:23.056Z,75.41
2019-03-27T04:26:09.153Z,75.39
2019-03-27T04:28:29.725Z,75.39
2019-03-27T04:31:01.221Z,75.39
2019-03-27T04:33:34.486Z,75.29
2019-03-27T04:36:06.293Z,75.62
2019-03-27T04:38:38.727Z,75.35
2019-03-27T04:41:10.258Z,74.90
2019-03-27T04:43:42.654Z,75.04
2019-03-27T04:46:14.314Z,74.78
2019-03-27T04:48:45.950Z,74.74
2019-03-27T04:51:18.447Z,74.84
2019-03-27T04:53:51.030Z,75.10
2019-03-27T04:56:25.144Z,75.19
2019-03-27T04:58:57.475Z,75.14
2019-03-27T05:01:29.185Z,75.08
2019-03-27T05:04:02.275Z,74.84
2019-03-27T05:06:35.191Z,74.91
2019-03-27T05:09:08.031Z,75.23
2019-03-27T05:11:40.457Z,75.44
2019-03-27T05:14:32.573Z,75.41
2019-03-27T05:17:05.477Z,75.33
2019-03-27T05:19:37.128Z,75.33
2019-03-27T05:22:09.396Z,75.39
2019-03-27T05:24:43.046Z,75.30
2019-03-27T05:27:15.418Z,75.69
2019-03-27T05:29:47.167Z,75.65
2019-03-27T05:32:19.770Z,74.99
2019-03-27T05:34:51.572Z,74.91
2019-03-27T05:37:23.359Z,75.14
2019-03-27T05:39:55.031Z,75.15
2019-03-27T05:42:28.932Z,75.07
2019-03-27T05:45:00.906Z,75.31
2019-03-27T05:47:34.418Z,75.67
2019-03-27T05:50:06.951Z,75.56
2019-03-27T05:52:40.099Z,75.75
2019-03-27T05:55:11.779Z,75.79
2019-03-27T05:57:44.189Z,75.58
2019-03-27T06:00:17.552Z,75.46
2019-03-27T06:02:49.365Z,75.38
2019-03-27T06:05:21.058Z,75.57
2019-03-27T06:07:52.646Z,75.35
2019-03-27T06:10:24.550Z,75.06
2019-03-27T06:12:57.822Z,75.15
2019-03-27T06:15:30.192Z,75.39
2019-03-27T06:18:12.582Z,75.28
2019-03-27T06:20:35.637Z,75.26
2019-03-27T06:23:07.697Z,75.24
2019-03-27T06:25:39.246Z,75.30
2019-03-27T06:28:11.784Z,75.37
2019-03-27T06:30:43.871Z,75.82
2019-03-27T06:33:56.121Z,75.89
2019-03-27T06:36:28.606Z,75.65
2019-03-27T06:39:00.690Z,75.13
2019-03-27T06:41:34.269Z,74.89
2019-03-27T06:44:06.371Z,74.88
2019-03-27T06:46:40.236Z,75.45
2019-03-27T06:49:12.341Z,75.45
2019-03-27T06:52:08.223Z,75.33
2019-03-27T06:54:41.636Z,75.28
2019-03-27T06:57:15.236Z,75.97
2019-03-27T06:59:53.586Z,75.55
2019-03-27T07:02:28.860Z,75.52
2019-03-27T07:04:59.421Z,75.49
2019-03-27T07:07:37.379Z,75.58
2019-03-27T07:10:09.611Z,75.91
2019-03-27T07:12:41.183Z,75.72
2019-03-27T07:15:13.146Z,78.26
2019-03-27T07:17:50.844Z,75.75
2019-03-27T07:20:22.521Z,73.70
2019-03-27T07:22:57.656Z,72.75
2019-03-27T07:25:30.098Z,73.55
2019-03-27T07:28:03.520Z,74.60
2019-03-27T07:30:35.032Z,74.27
2019-03-27T07:33:06.592Z,74.18
2019-03-27T07:35:38.980Z,74.23
2019-03-27T07:38:11.016Z,73.78
2019-03-27T07:40:43.660Z,74.31
2019-03-27T07:43:15.234Z,74.30
2019-03-27T07:45:46.813Z,73.89
2019-03-27T07:48:18.309Z,73.52
2019-03-27T07:50:50.927Z,73.52
2019-03-27T07:53:22.782Z,73.76
2019-03-27T07:55:54.327Z,73.59
2019-03-27T07:58:25.825Z,73.62
2019-03-27T08:00:57.433Z,73.73
2019-03-27T08:03:28.993Z,74.00
2019-03-27T08:06:00.538Z,73.41
2019-03-27T08:08:32.022Z,73.29
2019-03-27T08:11:03.753Z,72.67
2019-03-27T08:13:35.273Z,73.16
2019-03-27T08:16:07.803Z,72.81
2019-03-27T08:18:39.415Z,71.82
2019-03-27T08:21:11.357Z,71.95
2019-03-27T08:23:43.916Z,70.31
2019-03-27T08:26:16.017Z,70.34
2019-03-27T08:28:47.606Z,70.09
2019-03-27T08:31:19.147Z,69.84
2019-03-27T08:33:50.748Z,70.39
2019-03-27T08:36:28.603Z,70.29
2019-03-27T08:39:03.035Z,69.82
2019-03-27T08:41:35.161Z,70.08
2019-03-27T08:44:06.994Z,68.17
2019-03-27T08:46:38.889Z,67.83
2019-03-27T08:58:36.594Z,68.06
2019-03-27T09:06:36.168Z,66.70
2019-03-27T09:09:39.660Z,66.15
2019-03-27T09:12:26.573Z,66.03
2019-03-27T09:14:58.731Z,65.66
2019-03-27T09:17:30.715Z,66.25
2019-03-27T09:20:02.448Z,65.22
2019-03-27T09:22:34.406Z,64.55
2019-03-27T09:25:15.315Z,64.49
2019-03-27T09:27:49.447Z,64.86
2019-03-27T09:30:25.264Z,64.93
2019-03-27T09:32:57.243Z,64.42
2019-03-27T09:35:32.414Z,64.39
2019-03-27T09:38:07.936Z,63.90
2019-03-27T09:40:40.378Z,64.09
2019-03-27T09:43:13.490Z,64.01
2019-03-27T09:45:46.164Z,63.90
2019-03-27T09:48:18.097Z,62.85
2019-03-27T09:50:49.997Z,62.87
2019-03-27T09:53:21.809Z,62.99
2019-03-27T09:55:55.813Z,62.47
2019-03-27T09:58:28.898Z,62.09
2019-03-27T10:01:04.408Z,63.00
2019-03-27T10:03:36.393Z,62.65
2019-03-27T10:06:10.446Z,61.89
2019-03-27T10:08:43.595Z,60.52
2019-03-27T10:11:23.836Z,61.71
2019-03-27T10:13:55.866Z,61.62
2019-03-27T10:16:32.694Z,60.66
2019-03-27T10:19:04.520Z,60.98
2019-03-27T10:21:36.200Z,60.75
2019-03-27T10:24:08.071Z,60.42
2019-03-27T10:26:42.588Z,60.67
2019-03-27T10:29:19.355Z,59.95
2019-03-27T10:31:54.432Z,59.98
2019-03-27T10:34:29.782Z,60.25
2019-03-27T10:37:01.439Z,59.21
2019-03-27T10:39:33.853Z,58.75
2019-03-27T10:42:06.842Z,59.22
2019-03-27T10:44:38.473Z,59.50
2019-03-27T10:47:16.970Z,59.24
2019-03-27T10:49:49.534Z,59.24
2019-03-27T10:52:21.260Z,58.77
2019-03-27T10:54:56.967Z,59.14
2019-03-27T10:57:30.803Z,58.08
2019-03-27T11:00:02.772Z,57.87
2019-03-27T11:02:35.059Z,58.51
2019-03-27T11:05:07.555Z,58.02
2019-03-27T11:07:39.400Z,57.70
2019-03-27T11:10:11.695Z,58.46
2019-03-27T11:12:44.495Z,58.88
2019-03-27T11:16:48.122Z,58.51
2019-03-27T11:19:26.838Z,57.06
2019-03-27T11:21:58.695Z,56.85
2019-03-27T11:24:30.321Z,52.18
2019-03-27T11:27:02.282Z,51.82
2019-03-27T11:29:34.300Z,53.93
2019-03-27T11:32:08.605Z,53.69
2019-03-27T11:34:40.215Z,53.44
2019-03-27T11:37:11.825Z,54.73
2019-03-27T11:39:43.511Z,53.12
2019-03-27T11:42:21.042Z,50.88
2019-03-27T11:44:52.671Z,49.42
2019-03-27T11:47:24.505Z,50.26
2019-03-27T11:49:56.053Z,50.07
2019-03-27T11:52:29.625Z,50.00
2019-03-27T11:55:00.979Z,49.07
2019-03-27T11:57:32.583Z,50.42
2019-03-27T12:00:08.671Z,50.42
2019-03-27T12:02:42.048Z,49.07
2019-03-27T12:05:15.774Z,49.13
2019-03-27T12:07:48.811Z,49.07
2019-03-27T12:10:21.437Z,47.67
2019-03-27T12:12:56.546Z,46.00
2019-03-27T12:15:51.921Z,47.49
2019-03-27T12:18:26.768Z,44.84
2019-03-27T12:21:00.724Z,44.50
2019-03-27T12:23:32.380Z,44.39
2019-03-27T12:26:04.256Z,44.94
2019-03-27T12:28:36.973Z,45.01
2019-03-27T12:31:15.339Z,43.93
2019-03-27T12:33:46.968Z,42.05
2019-03-27T12:36:18.705Z,38.63
2019-03-27T12:38:50.346Z,40.15
2019-03-27T12:41:22.103Z,40.09
2019-03-27T12:43:53.779Z,40.00
2019-03-27T12:46:25.665Z,39.59
2019-03-27T12:48:57.291Z,39.84
2019-03-27T12:51:29.256Z,38.45
2019-03-27T12:54:01.154Z,38.82
2019-03-27T12:56:32.746Z,38.49
2019-03-27T12:59:04.375Z,38.47
2019-03-27T13:01:37.623Z,39.11
2019-03-27T13:04:09.427Z,35.81
2019-03-27T13:06:41.076Z,37.11
2019-03-27T13:09:12.838Z,35.76
2019-03-27T13:11:44.499Z,34.88
2019-03-27T13:14:16.365Z,34.69
2019-03-27T13:16:48.069Z,34.87
2019-03-27T13:19:20.887Z,36.30
2019-03-27T13:21:55.327Z,36.16
2019-03-27T13:24:27.329Z,35.21
2019-03-27T13:26:58.891Z,36.42
2019-03-27T13:29:30.622Z,33.20
2019-03-27T13:32:02.245Z,33.13
2019-03-27T13:34:34.026Z,34.16
2019-03-27T13:37:06.071Z,33.42
2019-03-27T13:39:37.847Z,32.63
2019-03-27T13:42:09.393Z,31.28
2019-03-27T13:44:42.328Z,33.84
2019-03-27T13:47:15.251Z,31.10
2019-03-27T13:49:47.373Z,33.92
2019-03-27T13:52:20.180Z,30.22
2019-03-27T13:54:51.850Z,31.50
2019-03-27T13:57:24.090Z,31.62
2019-03-27T13:59:56.162Z,31.88
2019-03-27T14:02:32.868Z,32.28
2019-03-27T14:05:04.646Z,33.66
2019-03-27T14:07:36.481Z,34.51
2019-03-27T14:10:10.118Z,34.85
2019-03-27T14:12:41.919Z,36.68
2019-03-27T14:15:16.009Z,38.75
2019-03-27T14:17:47.878Z,38.93
2019-03-27T14:20:19.949Z,38.90
2019-03-27T14:22:52.336Z,39.58
2019-03-27T14:25:33.254Z,39.78
2019-03-27T14:28:04.966Z,40.15
2019-03-27T14:31:02.619Z,40.23
2019-03-27T14:33:34.744Z,40.64
2019-03-27T14:36:06.261Z,41.25
2019-03-27T14:38:39.314Z,41.71
2019-03-27T14:41:10.898Z,41.86
2019-03-27T14:43:42.991Z,42.08
2019-03-27T14:46:14.696Z,43.10
2019-03-27T14:48:46.159Z,43.93
2019-03-27T14:51:17.631Z,44.86
2019-03-27T14:53:49.671Z,45.55
2019-03-27T14:56:21.476Z,46.17
2019-03-27T14:58:52.995Z,45.73
2019-03-27T15:01:24.628Z,45.68
2019-03-27T15:03:56.309Z,45.82
2019-03-27T15:06:27.845Z,46.04
2019-03-27T15:09:00.406Z,45.78
2019-03-27T15:11:31.890Z,46.04
2019-03-27T15:14:03.423Z,45.94
2019-03-27T15:16:35.009Z,46.85
2019-03-27T15:19:06.611Z,46.57
2019-03-27T15:21:38.159Z,46.89
2019-03-27T15:24:09.871Z,47.37
2019-03-27T15:26:41.754Z,47.87
2019-03-27T15:29:13.722Z,48.26
2019-03-27T15:31:45.316Z,48.01
2019-03-27T15:34:16.905Z,47.13
2019-03-27T15:36:48.519Z,47.12
2019-03-27T15:39:20.065Z,47.17
2019-03-27T15:41:51.695Z,46.82
2019-03-27T15:44:23.304Z,47.25
2019-03-27T15:46:54.965Z,47.64
2019-03-27T15:49:27.035Z,47.46
2019-03-27T15:51:58.822Z,47.46
2019-03-27T15:54:30.413Z,46.85
2019-03-27T15:57:01.986Z,47.33
2019-03-27T15:59:33.904Z,47.30
2019-03-27T16:02:05.694Z,47.49
2019-03-27T16:04:38.911Z,47.53
2019-03-27T16:07:10.783Z,48.23
2019-03-27T16:09:42.490Z,48.62
2019-03-27T16:12:14.154Z,48.74
2019-03-27T16:14:45.690Z,49.04
2019-03-27T16:17:17.380Z,49.60
2019-03-27T16:19:48.947Z,49.71
2019-03-27T16:22:20.775Z,50.35
2019-03-27T16:24:52.396Z,50.78
2019-03-27T16:27:25.991Z,51.06
2019-03-27T16:29:58.507Z,51.41
2019-03-27T16:32:30.580Z,51.59
2019-03-27T16:35:03.398Z,51.12
2019-03-27T16:37:35.366Z,51.97
2019-03-27T16:40:08.145Z,52.11
2019-03-27T16:42:39.928Z,52.90
2019-03-27T16:45:11.927Z,53.12
2019-03-27T16:47:43.320Z,53.48
2019-03-27T16:50:15.941Z,53.89
2019-03-27T16:52:47.697Z,53.52
2019-03-27T16:55:19.739Z,54.15
2019-03-27T16:57:51.550Z,53.62
2019-03-27T17:00:24.404Z,54.54
2019-03-27T17:02:56.418Z,54.77
2019-03-27T17:05:27.994Z,54.87
2019-03-27T17:07:59.567Z,56.16
2019-03-27T17:10:31.077Z,57.99
2019-03-27T17:13:02.628Z,58.99
2019-03-27T17:15:34.047Z,59.43
2019-03-27T17:18:05.882Z,59.97
2019-03-27T17:20:37.351Z,60.95
2019-03-27T17:23:18.168Z,61.76
2019-03-27T17:25:42.203Z,61.52
2019-03-27T17:28:13.956Z,61.46
2019-03-27T17:30:45.631Z,59.88
2019-03-27T17:33:18.106Z,60.46
2019-03-27T17:35:49.804Z,60.59
2019-03-27T17:38:21.441Z,60.21
2019-03-27T17:40:54.107Z,59.39
2019-03-27T17:43:26.031Z,59.03
2019-03-27T17:45:58.015Z,59.04
2019-03-27T17:48:29.695Z,59.02
2019-03-27T17:51:01.278Z,59.14
2019-03-27T17:53:36.126Z,59.17
2019-03-27T17:56:11.603Z,58.60
2019-03-27T17:58:43.543Z,58.87
2019-03-27T18:01:15.975Z,59.04
2019-03-27T18:03:50.714Z,58.66
2019-03-27T18:06:24.982Z,59.72
2019-03-27T18:08:58.037Z,60.04
2019-03-27T18:11:29.711Z,59.84
2019-03-27T18:14:04.173Z,59.80
2019-03-27T18:16:39.108Z,59.91
2019-03-27T18:19:13.106Z,60.78
2019-03-27T18:21:50.602Z,60.88
2019-03-27T18:24:22.183Z,60.63
2019-03-27T18:26:53.823Z,60.56
2019-03-27T18:29:26.671Z,60.79
2019-03-27T18:32:00.400Z,60.73
2019-03-27T18:34:34.499Z,61.77
2019-03-27T18:37:09.365Z,61.15
2019-03-27T18:39:42.394Z,61.75
2019-03-27T18:42:14.668Z,61.08
2019-03-27T18:44:46.433Z,61.32
2019-03-27T18:47:18.674Z,61.75
2019-03-27T18:50:03.342Z,60.93
2019-03-27T18:53:02.521Z,60.88
2019-03-27T18:59:38.735Z,61.54
2019-03-27T19:02:20.784Z,62.00
2019-03-27T19:04:53.801Z,61.08
2019-03-27T19:07:25.873Z,61.06
2019-03-27T19:09:57.703Z,61.10
2019-03-27T19:12:30.451Z,61.35
2019-03-27T19:15:02.244Z,61.38
2019-03-27T19:17:33.829Z,61.30
2019-03-27T19:20:05.879Z,61.26
2019-03-27T19:22:37.804Z,61.80
2019-03-27T19:25:09.675Z,62.64
2019-03-27T19:27:41.292Z,61.87
2019-03-27T19:30:14.789Z,61.47
2019-03-27T19:32:46.372Z,61.44
2019-03-27T19:35:18.017Z,61.91
2019-03-27T19:38:10.470Z,61.46
2019-03-27T19:40:44.127Z,61.92
2019-03-27T19:43:16.544Z,62.39
2019-03-27T19:45:48.330Z,62.56
2019-03-27T19:48:19.919Z,62.60
2019-03-27T19:50:52.811Z,62.81
2019-03-27T19:53:24.396Z,62.85
2019-03-27T19:56:24.097Z,63.10
2019-03-27T19:59:01.759Z,62.65
2019-03-27T20:01:56.722Z,63.16
2019-03-27T20:13:40.537Z,64.19
2019-03-27T20:16:12.065Z,63.73
2019-03-27T20:18:43.729Z,64.89
2019-03-27T20:21:15.380Z,65.36
2019-03-27T20:23:46.949Z,64.41
2019-03-27T20:26:18.515Z,64.62
2019-03-27T20:28:50.044Z,65.28
2019-03-27T20:31:21.643Z,64.46
2019-03-27T20:33:53.381Z,64.75
2019-03-27T20:36:26.589Z,64.55
2019-03-27T20:38:58.218Z,64.31
2019-03-27T20:41:29.770Z,65.28
2019-03-27T20:44:01.430Z,64.71
2019-03-27T20:46:32.962Z,65.49
2019-03-27T20:49:04.832Z,65.93
2019-03-27T20:51:36.559Z,65.48
2019-03-27T20:54:09.038Z,66.64
2019-03-27T20:56:40.871Z,66.28
2019-03-27T20:59:18.769Z,66.22
2019-03-27T21:01:51.389Z,66.70
2019-03-27T21:04:29.986Z,67.48
2019-03-27T21:07:01.857Z,67.25
2019-03-27T21:09:34.065Z,66.79
2019-03-27T21:12:06.165Z,66.97
2019-03-27T21:14:38.177Z,67.09
2019-03-27T21:17:09.827Z,66.46
2019-03-27T21:19:41.678Z,66.24
2019-03-27T21:22:13.325Z,66.20
2019-03-27T21:24:45.211Z,66.51
2019-03-27T21:27:17.093Z,66.32
2019-03-27T21:29:49.072Z,66.45
2019-03-27T21:32:22.102Z,67.72
2019-03-27T21:34:53.998Z,67.40
2019-03-27T21:37:27.011Z,67.10
2019-03-27T21:39:59.003Z,66.89
2019-03-27T21:42:30.908Z,67.35
2019-03-27T21:45:03.721Z,66.67
2019-03-27T21:47:35.278Z,67.19
2019-03-27T21:50:07.497Z,67.10
2019-03-27T21:52:39.085Z,68.05
2019-03-27T21:55:22.088Z,68.12
2019-03-27T21:57:44.079Z,68.31
2019-03-27T22:00:19.337Z,67.64
2019-03-27T22:02:50.941Z,67.74
2019-03-27T22:05:22.518Z,67.98
2019-03-27T22:07:54.047Z,67.74
2019-03-27T22:10:34.494Z,68.44
2019-03-27T22:13:06.530Z,67.71
2019-03-27T22:15:39.871Z,67.79
2019-03-27T22:18:15.230Z,67.79
2019-03-27T22:20:47.250Z,67.92
2019-03-27T22:23:18.817Z,68.00
2019-03-27T22:25:51.974Z,68.27
2019-03-27T22:28:23.915Z,67.69
2019-03-27T22:30:56.012Z,67.95
2019-03-27T22:33:27.845Z,68.44
2019-03-27T22:36:00.281Z,68.57
2019-03-27T22:38:32.404Z,68.81
2019-03-27T22:41:04.253Z,68.73
2019-03-27T22:43:37.633Z,68.78
2019-03-27T22:46:09.434Z,69.50
2019-03-27T22:48:41.468Z,69.70
2019-03-27T22:51:14.158Z,69.66
2019-03-27T22:53:48.003Z,69.42
2019-03-27T22:56:22.982Z,69.38
2019-03-27T22:58:54.554Z,69.50
2019-03-27T23:01:32.801Z,68.95
2019-03-27T23:04:04.396Z,69.45
2019-03-27T23:06:37.706Z,69.01
2019-03-27T23:09:10.051Z,69.12
2019-03-27T23:11:41.712Z,68.81
2019-03-27T23:14:13.647Z,69.55
2019-03-27T23:16:45.244Z,69.11
2019-03-27T23:19:18.094Z,69.12
2019-03-27T23:21:49.728Z,68.75
2019-03-27T23:24:21.408Z,68.98
2019-03-27T23:26:54.478Z,68.97
2019-03-27T23:29:26.111Z,69.05
2019-03-27T23:31:57.614Z,69.39
2019-03-27T23:34:29.218Z,69.34
2019-03-27T23:37:00.865Z,69.18
2019-03-27T23:39:32.481Z,69.19
2019-03-27T23:42:04.071Z,69.73
2019-03-27T23:44:35.622Z,69.49
2019-03-27T23:47:07.612Z,68.83
2019-03-27T23:49:39.181Z,69.26
2019-03-27T23:52:11.034Z,69.44
2019-03-27T23:54:42.593Z,69.42
2019-03-27T23:57:14.513Z,69.91
2019-03-27T23:59:46.088Z,70.40
